Time;durP1;ratioP1;P1;durP2;ratioP2;P2;SDS_P1;SDS_P2;PMS_P1;PMS_P2;Temp;Humidity;BMP_temperature;BMP_pressure;BME280_temperature;BME280_humidity;BME280_pressure;Samples;Min_cycle;Max_cycle;Signal;HPM_P1;HPM_P2
2022/10/23 00:02:05;;;;;;;17.48;8.23;;;;;;;11.14;78.31;100459.06;10360986;28;20049;-79
2022/10/23 00:07:08;;;;;;;13.48;7.47;;;;;;;11.10;78.27;100438.75;10373995;28;20042;-79
2022/10/23 00:12:12;;;;;;;13.45;7.53;;;;;;;11.04;78.30;100439.25;10371043;28;20056;-80
2022/10/23 00:17:15;;;;;;;17.25;8.10;;;;;;;11.02;78.58;100451.94;10358609;28;20104;-80
2022/10/23 00:22:18;;;;;;;16.23;7.15;;;;;;;10.99;78.73;100444.16;10340655;28;20054;-78
2022/10/23 00:27:22;;;;;;;;;;;;;;;10.98;79.27;100451.38;10351305;28;20422;-80
2022/10/23 00:32:25;;;;;;;15.63;7.05;;;;;;;11.04;79.49;100450.00;10355825;28;19944;-80
2022/10/23 00:37:28;;;;;;;21.60;6.72;;;;;;;11.01;79.75;100447.56;10356451;28;20064;-80
2022/10/23 00:42:33;;;;;;;19.38;6.07;;;;;;;10.96;80.13;100444.41;10367249;28;20053;-78
2022/10/23 00:47:36;;;;;;;12.65;6.90;;;;;;;10.98;79.98;100447.81;10380640;28;20045;-78
2022/10/23 00:52:45;;;;;;;13.32;7.05;;;;;;;10.94;80.05;100441.84;10373023;28;20141;-81
2022/10/23 00:57:51;;;;;;;10.93;6.80;;;;;;;10.94;80.18;100432.91;10371575;28;20050;-80
2022/10/23 01:02:56;;;;;;;13.90;6.80;;;;;;;10.88;80.11;100447.72;10358277;28;20049;-81
2022/10/23 01:08:06;;;;;;;17.70;8.63;;;;;;;10.86;80.32;100452.38;10357022;28;20045;-81
2022/10/23 01:13:16;;;;;;;15.20;8.63;;;;;;;10.83;80.40;100431.97;10366058;28;20054;-80
2022/10/23 01:18:27;;;;;;;15.90;7.97;;;;;;;10.78;80.56;100425.28;10372560;28;20056;-80
2022/10/23 01:23:47;;;;;;;16.27;8.07;;;;;;;10.76;80.65;100433.44;10374739;28;20041;-80
2022/10/23 01:28:56;;;;;;;17.55;7.80;;;;;;;10.74;80.79;100432.72;10378650;28;20038;-79
2022/10/23 01:34:08;;;;;;;16.33;8.02;;;;;;;10.71;80.91;100435.66;10375664;28;20049;-80
2022/10/23 01:39:15;;;;;;;15.43;6.80;;;;;;;10.69;81.15;100426.84;10344995;28;20089;-81
2022/10/23 01:44:25;;;;;;;21.58;8.23;;;;;;;10.69;81.60;100424.16;10366452;28;20502;-80
2022/10/23 01:49:29;;;;;;;20.17;7.32;;;;;;;10.71;81.30;100418.69;10361809;28;20097;-80
2022/10/23 01:54:39;;;;;;;16.08;7.55;;;;;;;10.66;81.48;100427.09;10372763;28;20493;-80
2022/10/23 01:59:48;;;;;;;15.02;7.15;;;;;;;10.63;81.78;100419.28;10382920;28;20042;-80
2022/10/23 02:04:58;;;;;;;18.58;7.65;;;;;;;10.68;81.78;100422.47;10371330;28;20123;-80
2022/10/23 02:10:03;;;;;;;13.90;6.53;;;;;;;10.65;81.94;100427.25;10376996;28;20056;-79
2022/10/23 02:15:13;;;;;;;11.13;6.80;;;;;;;10.60;82.02;100409.66;10368088;28;20054;-80
2022/10/23 02:20:22;;;;;;;11.75;6.63;;;;;;;10.59;82.14;100409.78;10365186;28;20056;-78
2022/10/23 02:25:33;;;;;;;14.35;7.05;;;;;;;10.54;82.16;100404.78;10372678;28;20103;-81
2022/10/23 02:30:44;;;;;;;13.63;7.13;;;;;;;10.54;82.27;100395.88;10357908;28;20049;-80
2022/10/23 02:35:48;;;;;;;16.58;7.38;;;;;;;10.51;82.14;100394.28;10378691;28;20057;-80
2022/10/23 02:41:09;;;;;;;11.48;7.18;;;;;;;10.45;82.28;100377.78;10362848;28;20062;-79
2022/10/23 02:46:23;;;;;;;10.43;7.25;;;;;;;10.43;82.60;100377.94;10354783;28;20072;-81
2022/10/23 02:51:34;;;;;;;12.65;7.47;;;;;;;10.36;82.86;100379.41;10368795;28;20057;-81
2022/10/23 02:56:44;;;;;;;12.45;6.90;;;;;;;10.45;82.93;100375.09;10366353;28;20060;-81
2022/10/23 03:01:53;;;;;;;10.85;6.70;;;;;;;10.46;82.91;100363.41;10382353;28;20061;-80
2022/10/23 03:06:56;;;;;;;13.70;6.28;;;;;;;10.42;83.06;100351.19;10368925;28;20045;-81
2022/10/23 03:11:59;;;;;;;17.73;7.57;;;;;;;10.39;83.59;100347.81;10376515;28;20522;-81
2022/10/23 03:17:10;;;;;;;12.75;6.55;;;;;;;10.41;83.78;100344.13;10360978;28;20072;-80
2022/10/23 03:22:13;;;;;;;13.73;6.30;;;;;;;10.41;83.87;100344.13;10380904;28;20810;-78
2022/10/23 03:27:16;;;;;;;14.75;6.47;;;;;;;10.43;84.08;100334.13;10371447;28;20049;-78
2022/10/23 03:32:20;;;;;;;20.70;6.75;;;;;;;10.42;84.23;100337.75;10378796;28;20536;-80
2022/10/23 03:37:23;;;;;;;16.98;6.82;;;;;;;10.32;84.35;100335.84;10371026;28;20199;-80
2022/10/23 03:42:26;;;;;;;16.10;7.13;;;;;;;10.41;84.45;100346.81;10370648;28;20049;-79
2022/10/23 03:47:34;;;;;;;13.25;6.15;;;;;;;10.40;84.68;100343.28;10385822;28;20093;-78
2022/10/23 03:52:37;;;;;;;14.25;6.30;;;;;;;10.38;85.09;100353.28;10370756;28;20042;-78
2022/10/23 03:57:40;;;;;;;8.73;5.82;;;;;;;10.39;84.82;100347.81;10371227;28;20034;-80
2022/10/23 04:02:44;;;;;;;12.13;5.93;;;;;;;10.40;85.04;100332.53;10367148;28;20087;-80
2022/10/23 04:07:48;;;;;;;16.92;6.85;;;;;;;10.30;85.60;100318.16;10380184;28;20069;-79
2022/10/23 04:12:51;;;;;;;15.98;7.03;;;;;;;10.34;85.03;100317.78;10370308;28;20065;-79
2022/10/23 04:17:55;;;;;;;11.02;7.05;;;;;;;10.32;84.97;100324.25;10383844;28;20049;-80
2022/10/23 04:22:58;;;;;;;17.00;7.57;;;;;;;10.29;85.03;100319.13;10367590;28;20120;-79
2022/10/23 04:28:01;;;;;;;10.50;7.38;;;;;;;10.30;84.81;100320.81;10369927;28;20175;-79
2022/10/23 04:33:09;;;;;;;16.83;7.22;;;;;;;10.29;85.07;100319.97;10381952;28;20046;-78
2022/10/23 04:38:12;;;;;;;14.32;7.93;;;;;;;10.28;85.43;100325.47;10367864;28;20049;-78
2022/10/23 04:43:15;;;;;;;11.65;7.82;;;;;;;10.33;85.26;100313.38;10400710;28;20070;-78
2022/10/23 04:48:20;;;;;;;10.75;7.63;;;;;;;10.34;85.31;100296.31;10386404;28;20052;-80
2022/10/23 04:53:46;;;;;;;15.13;7.50;;;;;;;10.29;84.64;100298.50;10362865;28;20090;-79
2022/10/23 04:59:13;;;;;;;14.80;6.50;;;;;;;10.22;85.41;100299.97;10354123;28;20053;-78
2022/10/23 05:04:19;;;;;;;11.55;7.13;;;;;;;10.27;85.34;100300.44;10367162;28;20050;-79
2022/10/23 05:09:42;;;;;;;19.40;7.88;;;;;;;10.24;85.95;100306.06;10376154;28;20506;-79
2022/10/23 05:15:11;;;;;;;13.40;7.60;;;;;;;10.33;85.74;100308.00;10359403;28;20191;-79
2022/10/23 05:20:19;;;;;;;14.32;7.45;;;;;;;10.34;85.79;100298.13;10354332;28;20199;-79
2022/10/23 05:25:22;;;;;;;15.05;6.70;;;;;;;10.32;86.03;100289.34;10359425;28;20049;-81
2022/10/23 05:30:33;;;;;;;14.43;6.85;;;;;;;10.40;85.99;100289.56;10367236;28;20076;-80
2022/10/23 05:35:41;;;;;;;10.80;6.75;;;;;;;10.39;86.32;100287.84;10373491;28;20076;-81
2022/10/23 05:40:44;;;;;;;14.88;6.53;;;;;;;10.38;86.27;100278.94;10354813;28;20049;-79
2022/10/23 05:45:52;;;;;;;12.32;7.65;;;;;;;10.35;86.31;100275.66;10354490;28;20056;-80
2022/10/23 05:51:06;;;;;;;11.38;6.45;;;;;;;10.39;85.86;100258.31;10385971;28;20049;-79
2022/10/23 05:56:20;;;;;;;16.20;7.10;;;;;;;10.33;86.35;100274.94;10370817;28;20049;-81
2022/10/23 06:01:55;;;;;;;12.13;7.22;;;;;;;10.41;86.19;100258.19;10360690;28;20048;-79
2022/10/23 06:07:25;;;;;;;12.27;6.97;;;;;;;10.37;86.14;100242.34;10370784;28;20052;-79
2022/10/23 06:12:31;;;;;;;19.48;8.05;;;;;;;10.43;86.29;100238.28;10356946;28;20053;-81
2022/10/23 06:17:34;;;;;;;16.95;8.13;;;;;;;10.42;86.36;100241.09;10356856;28;20045;-79
2022/10/23 06:22:39;;;;;;;17.92;8.20;;;;;;;10.52;86.08;100234.00;10346437;28;20045;-77
2022/10/23 06:27:57;;;;;;;14.98;7.78;;;;;;;10.55;86.12;100229.22;10360521;28;20130;-80
2022/10/23 06:33:02;;;;;;;15.07;8.15;;;;;;;10.60;85.87;100235.06;10365783;28;20053;-79
2022/10/23 06:38:10;;;;;;;18.17;8.30;;;;;;;10.67;85.67;100231.84;10375555;28;20132;-79
2022/10/23 06:43:21;;;;;;;14.75;7.85;;;;;;;10.68;85.95;100231.72;10368111;28;20368;-78
2022/10/23 06:48:50;;;;;;;16.75;8.02;;;;;;;10.87;85.28;100224.81;10368977;28;20678;-79
2022/10/23 06:54:00;;;;;;;23.63;9.30;;;;;;;10.80;85.40;100229.84;10355053;28;20054;-79
2022/10/23 06:59:22;;;;;;;23.58;9.35;;;;;;;11.11;85.15;100233.47;10366435;28;20045;-81
2022/10/23 07:04:27;;;;;;;10.25;6.68;;;;;;;11.26;84.34;100232.16;10368932;28;20046;-81
2022/10/23 07:09:31;;;;;;;9.27;5.85;;;;;;;11.46;83.75;100224.19;10387920;28;20042;-80
2022/10/23 07:14:52;;;;;;;10.85;6.20;;;;;;;11.57;82.95;100242.09;10367616;28;20140;-79
2022/10/23 07:19:59;;;;;;;10.52;5.90;;;;;;;11.72;81.89;100236.22;10357098;28;20046;-80
2022/10/23 07:25:04;;;;;;;14.45;8.02;;;;;;;11.70;81.70;100246.25;10362225;28;20049;-80
2022/10/23 07:30:13;;;;;;;16.50;8.27;;;;;;;11.65;81.72;100237.72;10367372;28;20061;-80
2022/10/23 07:35:21;;;;;;;14.65;8.00;;;;;;;11.70;82.10;100226.59;10372434;28;20045;-80
2022/10/23 07:40:31;;;;;;;16.73;8.65;;;;;;;11.93;81.64;100224.56;10372944;28;20088;-78
2022/10/23 07:45:35;;;;;;;12.80;8.73;;;;;;;12.02;81.72;100215.66;10378872;28;20509;-79
2022/10/23 07:50:45;;;;;;;16.70;7.85;;;;;;;12.23;81.21;100212.88;10368275;28;20046;-79
2022/10/23 07:55:54;;;;;;;16.52;7.88;;;;;;;12.42;80.83;100217.44;10405439;28;20100;-81
2022/10/23 08:01:01;;;;;;;14.77;8.13;;;;;;;12.44;80.53;100217.31;10391633;28;20045;-78
2022/10/23 08:06:11;;;;;;;15.33;7.63;;;;;;;12.66;80.12;100229.66;10373775;28;20526;-79
2022/10/23 08:11:19;;;;;;;13.88;7.20;;;;;;;12.92;79.73;100213.75;10356800;28;20281;-78
2022/10/23 08:16:25;;;;;;;10.38;6.43;;;;;;;13.07;79.16;100214.16;10356921;28;20529;-81
2022/10/23 08:21:46;;;;;;;8.32;6.70;;;;;;;13.31;78.81;100214.53;10359193;28;20053;-79
2022/10/23 08:26:52;;;;;;;12.70;6.47;;;;;;;13.62;77.76;100195.41;10361570;28;20096;-80
2022/10/23 08:31:58;;;;;;;12.43;5.43;;;;;;;13.70;77.53;100182.03;10355110;28;20164;-81
2022/10/23 08:37:06;;;;;;;9.32;6.20;;;;;;;13.71;76.88;100173.78;10368303;28;20052;-80
2022/10/23 08:42:20;;;;;;;12.93;5.63;;;;;;;13.76;77.47;100185.97;10375675;28;20095;-78
2022/10/23 08:47:30;;;;;;;9.98;4.85;;;;;;;13.88;76.63;100196.44;10361486;28;20054;-78
2022/10/23 08:53:02;;;;;;;8.47;4.40;;;;;;;13.85;76.78;100195.88;10364751;28;20052;-80
2022/10/23 08:58:14;;;;;;;8.98;4.50;;;;;;;13.98;76.71;100188.25;10379811;28;20046;-78
2022/10/23 09:03:17;;;;;;;9.45;3.88;;;;;;;14.27;76.05;100179.97;10372579;28;20510;-81
2022/10/23 09:08:30;;;;;;;6.72;3.60;;;;;;;14.42;75.15;100176.75;10366802;28;20067;-77
2022/10/23 09:14:03;;;;;;;8.27;4.07;;;;;;;14.35;75.12;100185.47;10365232;28;20092;-79
2022/10/23 09:19:14;;;;;;;8.98;3.85;;;;;;;14.27;75.49;100168.31;10374708;28;20132;-81
2022/10/23 09:24:20;;;;;;;9.05;3.53;;;;;;;14.39;75.44;100161.72;10381342;28;20126;-80
2022/10/23 09:29:27;;;;;;;6.10;3.67;;;;;;;14.46;74.96;100159.25;10380565;28;20041;-79
2022/10/23 09:34:32;;;;;;;8.40;3.15;;;;;;;14.56;74.80;100155.47;10383443;28;20055;-79
2022/10/23 09:39:36;;;;;;;5.35;2.92;;;;;;;14.54;73.90;100149.34;10381828;28;20055;-77
2022/10/23 09:44:48;;;;;;;5.05;2.95;;;;;;;14.94;73.24;100141.72;10381165;28;20052;-79
2022/10/23 09:49:56;;;;;;;3.75;3.00;;;;;;;15.62;71.54;100138.22;10401517;28;20042;-78
2022/10/23 09:55:01;;;;;;;4.00;2.83;;;;;;;15.98;69.73;100128.00;10398647;28;20087;-77
2022/10/23 10:00:15;;;;;;;6.00;2.35;;;;;;;16.03;68.91;100120.22;10384316;28;20061;-79
2022/10/23 10:05:25;;;;;;;4.05;2.28;;;;;;;15.62;70.09;100116.56;10366874;28;20091;-79
2022/10/23 10:10:35;;;;;;;4.93;2.30;;;;;;;15.94;69.94;100110.41;10367284;28;20065;-79
2022/10/23 10:15:45;;;;;;;5.70;2.38;;;;;;;16.36;67.64;100109.47;10359954;28;20057;-79
2022/10/23 10:20:57;;;;;;;8.88;2.85;;;;;;;16.35;67.22;100111.34;10365541;28;20057;-79
2022/10/23 10:26:08;;;;;;;4.50;2.00;;;;;;;16.40;67.18;100107.25;10342422;28;20061;-79
2022/10/23 10:31:19;;;;;;;3.25;1.83;;;;;;;16.67;65.88;100095.22;10352887;28;20098;-80
2022/10/23 10:36:40;;;;;;;5.25;2.20;;;;;;;16.58;65.88;100100.66;10353697;28;20123;-79
2022/10/23 10:41:52;;;;;;;3.25;2.10;;;;;;;16.43;66.58;100094.22;10363943;28;20057;-81
2022/10/23 10:46:59;;;;;;;4.57;2.13;;;;;;;16.15;67.98;100083.69;10362295;28;20041;-79
2022/10/23 10:52:18;;;;;;;15.13;2.75;;;;;;;16.47;67.42;100071.16;10353643;28;20451;-79
2022/10/23 10:57:29;;;;;;;4.60;2.00;;;;;;;16.49;67.37;100074.56;10358058;28;20480;-78
2022/10/23 11:02:40;;;;;;;6.78;2.00;;;;;;;16.51;67.49;100064.41;10352169;28;20092;-80
2022/10/23 11:07:54;;;;;;;4.55;2.05;;;;;;;16.72;67.23;100039.44;10360354;28;20426;-80
2022/10/23 11:12:57;;;;;;;6.63;1.85;;;;;;;16.70;67.17;100036.09;10368478;28;20417;-80
2022/10/23 11:18:03;;;;;;;5.03;1.98;;;;;;;17.16;65.39;100038.16;10375166;28;20057;-80
2022/10/23 11:23:34;;;;;;;6.30;1.92;;;;;;;17.54;64.61;100022.03;10373061;28;20050;-80
2022/10/23 11:28:56;;;;;;;4.88;1.92;;;;;;;18.24;62.13;100015.59;10384065;28;20572;-78
2022/10/23 11:34:14;;;;;;;4.53;2.22;;;;;;;17.88;62.63;100008.91;10385506;28;20048;-78
2022/10/23 11:39:21;;;;;;;4.05;1.67;;;;;;;17.56;63.95;99996.41;10398945;28;20056;-78
2022/10/23 11:44:42;;;;;;;4.95;2.28;;;;;;;17.55;64.50;99986.56;10384804;28;20061;-81
2022/10/23 11:49:47;;;;;;;2.53;1.63;;;;;;;17.16;65.65;99970.31;10391857;28;20041;-80
2022/10/23 11:55:02;;;;;;;5.68;2.03;;;;;;;17.16;65.50;99970.31;10358584;28;20049;-80
2022/10/23 12:00:21;;;;;;;5.38;1.63;;;;;;;17.34;64.78;99967.34;10343559;28;20062;-80
2022/10/23 12:05:31;;;;;;;4.30;1.40;;;;;;;17.48;63.97;99963.88;10367977;28;20481;-80
2022/10/23 12:10:44;;;;;;;3.63;1.83;;;;;;;17.67;63.09;99955.25;10369894;28;20046;-80
2022/10/23 12:15:53;;;;;;;5.05;1.60;;;;;;;17.38;63.33;99950.50;10356155;28;20045;-79
2022/10/23 12:21:03;;;;;;;5.60;1.83;;;;;;;17.12;63.99;99937.25;10355096;28;20549;-80
2022/10/23 12:26:38;;;;;;;4.10;1.58;;;;;;;16.86;64.62;99914.97;10363775;28;20107;-80
2022/10/23 12:31:51;;;;;;;4.18;1.40;;;;;;;16.88;65.08;99905.66;10364238;28;20045;-80
2022/10/23 12:37:06;;;;;;;4.88;1.90;;;;;;;16.82;64.85;99900.94;10360144;28;20510;-81
2022/10/23 12:42:16;;;;;;;4.07;1.45;;;;;;;16.95;64.99;99887.66;10363355;28;20113;-80
2022/10/23 12:47:21;;;;;;;6.47;1.58;;;;;;;16.98;64.98;99873.72;10377539;28;20154;-80
2022/10/23 12:52:24;;;;;;;3.08;1.17;;;;;;;16.63;65.45;99857.97;10370692;28;20042;-80
2022/10/23 12:57:30;;;;;;;6.13;1.50;;;;;;;16.45;66.02;99852.78;10388176;28;20143;-79
2022/10/23 13:02:34;;;;;;;4.70;1.80;;;;;;;16.65;66.05;99867.63;10369265;28;20105;-80
2022/10/23 13:07:43;;;;;;;3.63;1.88;;;;;;;16.47;66.92;99864.31;10381762;28;20072;-80
2022/10/23 13:12:53;;;;;;;4.05;1.50;;;;;;;16.42;67.46;99861.28;10389269;28;20399;-80
2022/10/23 13:18:05;;;;;;;7.10;1.70;;;;;;;16.22;68.03;99850.81;10392225;28;20498;-80
2022/10/23 13:23:12;;;;;;;3.33;1.55;;;;;;;16.36;67.75;99846.56;10396608;28;20047;-79
2022/10/23 13:28:24;;;;;;;10.05;2.33;;;;;;;16.52;67.81;99832.94;10384530;28;20706;-81
2022/10/23 13:33:35;;;;;;;4.07;2.20;;;;;;;16.55;67.86;99810.91;10371797;28;20700;-81
2022/10/23 13:38:39;;;;;;;4.57;2.00;;;;;;;17.01;66.57;99796.56;10385265;28;20170;-80
2022/10/23 13:43:45;;;;;;;3.25;1.75;;;;;;;16.90;66.47;99795.09;10375990;28;20072;-80
2022/10/23 13:48:49;;;;;;;3.38;1.60;;;;;;;17.04;65.96;99778.03;10362006;28;20041;-80
2022/10/23 13:53:53;;;;;;;4.60;1.35;;;;;;;17.00;65.95;99782.16;10370092;28;20045;-80
2022/10/23 13:58:56;;;;;;;2.63;1.45;;;;;;;17.03;65.32;99773.66;10373190;28;20038;-81
2022/10/23 14:04:00;;;;;;;3.35;1.50;;;;;;;16.66;66.40;99735.59;10376734;28;20049;-80
2022/10/23 14:09:04;;;;;;;3.05;1.90;;;;;;;16.68;66.42;99747.13;10359631;28;20057;-81
2022/10/23 14:14:07;;;;;;;6.10;1.55;;;;;;;17.02;65.21;99739.38;10383254;28;20196;-80
2022/10/23 14:19:12;;;;;;;3.45;1.52;;;;;;;17.58;63.50;99735.50;10377463;28;20119;-80
2022/10/23 14:24:15;;;;;;;4.55;1.38;;;;;;;18.34;60.98;99726.13;10373397;28;21282;-80
2022/10/23 14:29:19;;;;;;;3.53;1.73;;;;;;;18.50;60.65;99718.78;10381623;28;20522;-80
2022/10/23 14:34:27;;;;;;;1.65;1.35;;;;;;;18.86;59.43;99724.22;10373074;28;20049;-81
2022/10/23 14:39:30;;;;;;;1.35;1.17;;;;;;;18.56;60.18;99704.41;10376985;28;20045;-81
2022/10/23 14:44:33;;;;;;;3.78;1.63;;;;;;;18.00;61.44;99702.31;10366543;28;20069;-79
2022/10/23 14:49:38;;;;;;;3.45;1.33;;;;;;;18.06;61.46;99700.69;10383960;28;20064;-78
2022/10/23 14:54:42;;;;;;;2.00;1.38;;;;;;;17.71;62.15;99700.41;10376188;28;20052;-78
2022/10/23 14:59:44;;;;;;;2.78;1.35;;;;;;;17.51;62.67;99683.84;10386483;28;21245;-80
2022/10/23 15:04:49;;;;;;;5.00;1.50;;;;;;;17.41;62.83;99688.69;10374813;28;20158;-80
2022/10/23 15:09:51;;;;;;;6.03;1.65;;;;;;;17.09;63.36;99665.44;10365661;28;20053;-79
2022/10/23 15:14:54;;;;;;;2.35;1.30;;;;;;;16.74;63.87;99657.75;10378731;28;20037;-78
2022/10/23 15:19:59;;;;;;;4.72;2.03;;;;;;;16.59;64.31;99660.41;10368325;28;20508;-79
2022/10/23 15:25:02;;;;;;;3.63;1.27;;;;;;;16.53;64.59;99666.53;10361524;28;20588;-79
2022/10/23 15:30:08;;;;;;;1.77;1.10;;;;;;;16.39;65.41;99675.44;10372843;28;20044;-79
2022/10/23 15:35:12;;;;;;;3.17;1.38;;;;;;;16.24;65.58;99669.09;10364739;28;20057;-79
2022/10/23 15:40:15;;;;;;;4.32;1.48;;;;;;;16.22;65.80;99654.88;10376036;28;20125;-80
2022/10/23 15:45:18;;;;;;;3.63;1.90;;;;;;;16.02;66.71;99639.09;10362033;28;20048;-79
2022/10/23 15:50:22;;;;;;;5.38;1.48;;;;;;;15.88;67.32;99640.69;10388353;28;20056;-79
2022/10/23 15:55:25;;;;;;;4.97;2.08;;;;;;;16.04;67.03;99655.13;10373923;28;20416;-78
2022/10/23 16:00:28;;;;;;;8.30;3.25;;;;;;;16.03;66.76;99623.66;10345526;28;20058;-79
2022/10/23 16:05:32;;;;;;;4.30;2.00;;;;;;;15.97;68.50;99600.84;10356704;28;20084;-78
2022/10/23 16:10:38;;;;;;;5.35;1.65;;;;;;;15.81;69.25;99592.81;10355543;28;20045;-80
2022/10/23 16:15:41;;;;;;;7.93;2.10;;;;;;;15.66;69.25;99581.88;10353915;28;20041;-81
2022/10/23 16:20:46;;;;;;;3.22;1.60;;;;;;;15.73;68.92;99585.56;10361505;28;20054;-80
2022/10/23 16:25:49;;;;;;;3.75;2.38;;;;;;;15.69;69.04;99592.38;10370252;28;20103;-80
2022/10/23 16:30:52;;;;;;;3.97;2.13;;;;;;;15.65;69.33;99583.75;10378420;28;20422;-79
2022/10/23 16:36:02;;;;;;;6.78;2.13;;;;;;;15.52;69.77;99577.22;10373845;28;21199;-80
2022/10/23 16:41:05;;;;;;;8.25;3.95;;;;;;;15.39;69.90;99575.94;10384843;28;20049;-80
2022/10/23 16:46:29;;;;;;;4.30;1.88;;;;;;;15.26;70.20;99578.31;10376861;28;20053;-81
2022/10/23 16:51:34;;;;;;;4.45;2.20;;;;;;;15.28;69.88;99627.69;10355852;28;20094;-79
2022/10/23 16:56:37;;;;;;;5.97;1.60;;;;;;;15.38;69.25;99658.09;10377076;28;20115;-81
2022/10/23 17:01:40;;;;;;;10.98;2.17;;;;;;;15.24;80.16;99670.44;10383820;28;20045;-78
2022/10/23 17:06:44;;;;;;;4.80;2.90;;;;;;;14.53;79.14;99688.22;10377656;28;20443;-78
2022/10/23 17:11:49;;;;;;;3.20;1.98;;;;;;;14.31;81.46;99680.72;10358386;28;20526;-78
2022/10/23 17:16:53;;;;;;;4.47;2.33;;;;;;;14.26;81.74;99672.25;10368370;28;20041;-77
2022/10/23 17:21:58;;;;;;;5.72;1.70;;;;;;;14.27;81.09;99696.41;10363666;28;20041;-77
2022/10/23 17:27:00;;;;;;;3.08;1.90;;;;;;;14.53;81.05;99685.50;10380086;28;20054;-77
2022/10/23 17:32:04;;;;;;;2.92;1.90;;;;;;;14.73;80.36;99685.22;10354163;28;20079;-77
2022/10/23 17:37:08;;;;;;;8.68;1.70;;;;;;;14.42;83.36;99693.09;10380640;28;20532;-77
2022/10/23 17:42:11;;;;;;;6.35;2.22;;;;;;;14.04;85.35;99693.50;10372333;28;20239;-76
2022/10/23 17:47:14;;;;;;;7.63;2.40;;;;;;;14.07;86.91;99695.00;10373115;28;20041;-78
2022/10/23 17:52:18;;;;;;;5.20;1.85;;;;;;;14.09;87.39;99707.31;10373900;28;20046;-79
2022/10/23 17:57:21;;;;;;;4.68;1.95;;;;;;;14.07;87.34;99724.69;10378917;28;20049;-78
2022/10/23 18:02:29;;;;;;;6.80;2.10;;;;;;;13.94;86.49;99717.06;10374705;28;20088;-78
2022/10/23 18:07:33;;;;;;;6.25;2.17;;;;;;;13.97;86.49;99716.75;10372470;28;20476;-76
2022/10/23 18:12:36;;;;;;;4.63;1.75;;;;;;;14.08;86.73;99731.81;10364868;28;20053;-76
2022/10/23 18:17:39;;;;;;;5.57;2.05;;;;;;;14.13;86.07;99737.56;10375378;28;20045;-78
2022/10/23 18:22:43;;;;;;;4.00;2.05;;;;;;;14.24;85.79;99760.75;10354117;28;20048;-80
2022/10/23 18:27:47;;;;;;;9.93;2.00;;;;;;;14.26;85.91;99773.06;10376137;28;20045;-79
2022/10/23 18:32:49;;;;;;;10.02;2.08;;;;;;;14.19;85.97;99790.09;10369190;28;20045;-77
2022/10/23 18:37:53;;;;;;;4.80;2.15;;;;;;;14.05;86.37;99795.09;10370936;28;20120;-78
2022/10/23 18:42:56;;;;;;;4.70;2.22;;;;;;;13.87;87.65;99803.25;10364356;28;20572;-79
2022/10/23 18:48:00;;;;;;;6.18;1.70;;;;;;;13.80;88.18;99779.78;10371029;28;20452;-77
2022/10/23 18:53:05;;;;;;;8.63;2.60;;;;;;;13.82;88.96;99773.22;10372916;28;20038;-77
2022/10/23 18:58:07;;;;;;;4.90;2.50;;;;;;;13.79;90.05;99776.19;10366499;28;20156;-77
2022/10/23 19:03:11;;;;;;;6.25;2.95;;;;;;;13.73;91.51;99740.94;10363559;28;20056;-77
2022/10/23 19:08:15;;;;;;;12.45;4.03;;;;;;;13.86;91.91;99690.88;10364857;28;20088;-77
2022/10/23 19:13:19;;;;;;;10.60;4.40;;;;;;;13.61;94.97;99644.06;10363422;28;20058;-77
2022/10/23 19:18:22;;;;;;;7.35;3.85;;;;;;;13.53;94.32;99591.91;10353915;28;20072;-76
2022/10/23 19:23:28;;;;;;;8.82;3.35;;;;;;;13.58;94.11;99603.91;10358009;28;20063;-78
2022/10/23 19:28:32;;;;;;;8.90;3.88;;;;;;;13.67;93.70;99593.97;10375637;28;20049;-78
2022/10/23 19:33:40;;;;;;;6.72;2.70;;;;;;;13.68;93.48;99634.28;10383424;28;20049;-77
2022/10/23 19:38:44;;;;;;;5.60;3.40;;;;;;;13.63;93.32;99596.19;10373515;28;20045;-78
2022/10/23 19:43:47;;;;;;;10.85;4.15;;;;;;;13.70;93.50;99604.44;10385632;28;20045;-79
2022/10/23 19:48:49;;;;;;;9.88;3.92;;;;;;;13.75;93.39;99585.06;10383286;28;20047;-78
2022/10/23 19:53:55;;;;;;;5.35;3.15;;;;;;;13.77;93.16;99578.50;10379318;28;20052;-78
2022/10/23 19:58:58;;;;;;;9.70;3.85;;;;;;;13.82;93.98;99589.66;10373767;28;20045;-77
2022/10/23 20:04:01;;;;;;;7.00;3.55;;;;;;;13.94;93.78;99580.22;10364939;28;20049;-77
2022/10/23 20:09:08;;;;;;;8.93;2.85;;;;;;;14.07;93.08;99570.78;10373981;28;20054;-79
2022/10/23 20:14:12;;;;;;;7.32;2.65;;;;;;;14.05;92.69;99575.53;10371215;28;20045;-79
2022/10/23 20:19:16;;;;;;;6.10;2.67;;;;;;;14.13;92.00;99589.03;10384722;28;20072;-79
2022/10/23 20:24:26;;;;;;;6.03;2.78;;;;;;;14.16;91.52;99594.94;10371003;28;20133;-80
2022/10/23 20:29:29;;;;;;;8.98;3.45;;;;;;;14.13;91.53;99597.13;10294806;28;20081;-79
2022/10/23 20:34:31;;;;;;;5.63;2.80;;;;;;;14.09;91.13;99606.56;10267654;28;20181;-77
2022/10/23 20:39:38;;;;;;;7.43;2.67;;;;;;;14.10;91.34;99600.19;10283935;28;20058;-80
2022/10/23 20:44:40;;;;;;;7.85;2.63;;;;;;;14.12;91.06;99587.31;10281237;28;20042;-79
2022/10/23 20:49:43;;;;;;;7.80;3.10;;;;;;;14.17;90.27;99576.88;10288529;28;20492;-80
2022/10/23 20:54:50;;;;;;;4.85;3.00;;;;;;;14.11;90.12;99572.16;10285402;28;20047;-77
2022/10/23 20:59:53;;;;;;;6.95;2.92;;;;;;;14.02;89.68;99568.59;10288878;28;20050;-80
2022/10/23 21:04:56;;;;;;;7.30;3.28;;;;;;;14.13;90.14;99572.84;10283549;28;20047;-79
2022/10/23 21:10:00;;;;;;;9.25;2.90;;;;;;;14.04;89.10;99563.00;10302634;28;20125;-78
2022/10/23 21:15:03;;;;;;;5.53;2.80;;;;;;;13.90;88.46;99559.97;10273645;28;20078;-79
2022/10/23 21:20:07;;;;;;;6.55;2.90;;;;;;;14.00;88.33;99557.13;10281469;28;20050;-78
2022/10/23 21:25:11;;;;;;;9.30;2.72;;;;;;;13.94;88.14;99555.09;10295871;28;20046;-79
2022/10/23 21:30:14;;;;;;;7.55;2.80;;;;;;;13.88;87.86;99556.59;10266120;28;20051;-78
2022/10/23 21:35:17;;;;;;;2.83;1.73;;;;;;;13.81;86.90;99570.91;10274174;28;20047;-79
2022/10/23 21:40:21;;;;;;;7.40;2.53;;;;;;;13.82;86.68;99572.59;10293862;28;20523;-78
2022/10/23 21:45:25;;;;;;;3.67;1.90;;;;;;;13.86;86.37;99580.22;10296061;28;20042;-79
2022/10/23 21:50:28;;;;;;;4.85;2.45;;;;;;;13.84;86.37;99603.81;10294345;28;20050;-78
2022/10/23 21:55:32;;;;;;;9.70;2.80;;;;;;;13.82;86.99;99610.38;10297752;28;20422;-79
2022/10/23 22:00:35;;;;;;;4.93;2.10;;;;;;;13.89;86.70;99635.72;10295655;28;20062;-79
2022/10/23 22:05:37;;;;;;;6.80;2.42;;;;;;;13.99;85.88;99654.47;10295172;28;21286;-79
2022/10/23 22:10:41;;;;;;;4.97;2.53;;;;;;;14.06;85.61;99659.06;10282824;28;21482;-79
2022/10/23 22:15:44;;;;;;;3.97;2.50;;;;;;;14.11;85.13;99675.59;10282116;28;20708;-79
2022/10/23 22:20:47;;;;;;;5.13;2.28;;;;;;;14.08;85.21;99683.19;10283108;28;20048;-78
2022/10/23 22:25:51;;;;;;;5.80;2.40;;;;;;;14.08;84.95;99673.25;10305654;28;20077;-77
2022/10/23 22:30:54;;;;;;;3.58;2.60;;;;;;;13.99;85.69;99678.75;10278605;28;20054;-77
2022/10/23 22:36:01;;;;;;;3.95;2.22;;;;;;;14.09;85.17;99684.88;10285101;28;20101;-79
2022/10/23 22:41:06;;;;;;;5.97;1.88;;;;;;;13.71;87.68;99673.59;10299859;28;21193;-74
2022/10/23 22:46:11;;;;;;;4.85;2.00;;;;;;;13.54;89.99;99664.59;10279372;28;20050;-77
2022/10/23 22:51:16;;;;;;;2.40;1.70;;;;;;;13.48;90.76;99676.03;10289220;28;20451;-78
2022/10/23 22:56:22;;;;;;;5.50;2.20;;;;;;;13.49;91.62;99658.81;10289337;28;20038;-78
2022/10/23 23:01:28;;;;;;;2.55;1.83;;;;;;;13.48;91.73;99657.97;10286935;28;20412;-78
2022/10/23 23:06:33;;;;;;;6.13;2.30;;;;;;;13.49;92.04;99672.31;10285340;28;20056;-78
2022/10/23 23:11:37;;;;;;;3.65;1.90;;;;;;;13.43;91.81;99671.09;10289133;28;20128;-77
2022/10/23 23:16:53;;;;;;;3.20;1.95;;;;;;;13.31;91.98;99663.44;10295910;28;20054;-78
2022/10/23 23:21:57;;;;;;;6.10;2.42;;;;;;;13.25;92.07;99671.16;10308305;28;20176;-79
2022/10/23 23:27:01;;;;;;;3.83;2.25;;;;;;;13.20;92.11;99651.91;10307677;28;20055;-78
2022/10/23 23:32:05;;;;;;;4.82;1.95;;;;;;;13.16;92.25;99655.06;10295891;28;20099;-78
2022/10/23 23:37:07;;;;;;;3.88;2.33;;;;;;;13.11;92.11;99655.56;10273265;28;21310;-79